Venez Explorer Les Airs Avec Nous!

Que ce soit pour un vol de découverte, pour apprendre l’arts du pilotage ou pour voyager, venez nous rejoindre.

Information en heures locale pour LFDL
17 February 2020

Metar
LFBI 170100Z AUTO 20006KT 9999 FEW011 OVC041 10/09 Q1018 TEMPO 3000 RA OVC006

Lever du soleil aéronautique : 07:32

Lever du soleil : 08:02

Coucher du soleil : 18:24

Coucher du soleil aéronautique : 18:54

Actualité

Nous sommes heureux d'accueillir un ULM Savannah au sein de notre flotte. Grace à cet appareil, vous pourrez découvrir une …
Bienvenue à tous, l' Aéroclub Loudunais vous accueille sur son nouveau site internet.

Newsletter Sign Up

Praesent libero sed cursus anted dapibus diam
Fermer le menu